Terminal Aerodrome Forecast
Issued by NWS Bismarck, ND

Home | Current Version | Previous Version | Graphics & Text | Print | Product List | Glossary On
Versions: 1 2 3 4 5 6 7 8 9 10 11 12 13 14 15 16 17 18 19 20
000
FTUS43 KBIS 242328
TAFBIS
TAF
KBIS 242328Z 2500/2524 29016G21KT P6SM SCT060
     FM250200 29010KT P6SM BKN050
     FM251000 30009KT P6SM BKN025
     FM251700 31010G16KT P6SM SCT050=

USA.gov is the U.S. government's official web portal to all federal, state and local government web resources and services.